sensor_id;sensor_type;location;lat;lon;timestamp;temperature;humidity
48488;DHT22;34289;48.572;13.378;2023-09-18T00:00:47;15.30;99.90
48488;DHT22;34289;48.572;13.378;2023-09-18T00:03:19;14.20;99.90
48488;DHT22;34289;48.572;13.378;2023-09-18T00:05:48;13.90;99.90
48488;DHT22;34289;48.572;13.378;2023-09-18T00:08:15;14.20;99.90
48488;DHT22;34289;48.572;13.378;2023-09-18T00:10:41;14.50;99.90
48488;DHT22;34289;48.572;13.378;2023-09-18T00:13:07;14.50;99.90
48488;DHT22;34289;48.572;13.378;2023-09-18T00:15:33;14.50;99.90
48488;DHT22;34289;48.572;13.378;2023-09-18T00:17:58;14.10;99.90
48488;DHT22;34289;48.572;13.378;2023-09-18T00:20:24;14.40;99.90
48488;DHT22;34289;48.572;13.378;2023-09-18T00:22:54;14.20;99.90
48488;DHT22;34289;48.572;13.378;2023-09-18T00:25:20;13.80;99.90
48488;DHT22;34289;48.572;13.378;2023-09-18T00:27:45;14.10;99.90
48488;DHT22;34289;48.572;13.378;2023-09-18T00:30:11;14.40;99.90
48488;DHT22;34289;48.572;13.378;2023-09-18T00:32:37;14.20;99.90
48488;DHT22;34289;48.572;13.378;2023-09-18T00:35:03;14.50;99.90
48488;DHT22;34289;48.572;13.378;2023-09-18T00:37:29;13.80;99.90
48488;DHT22;34289;48.572;13.378;2023-09-18T00:39:54;14.40;99.90
48488;DHT22;34289;48.572;13.378;2023-09-18T00:42:20;14.00;99.90
48488;DHT22;34289;48.572;13.378;2023-09-18T00:44:48;14.60;99.90
48488;DHT22;34289;48.572;13.378;2023-09-18T00:47:14;14.10;99.90
48488;DHT22;34289;48.572;13.378;2023-09-18T00:49:42;14.00;99.90
48488;DHT22;34289;48.572;13.378;2023-09-18T00:52:09;14.00;99.90
48488;DHT22;34289;48.572;13.378;2023-09-18T00:54:37;14.10;99.90
48488;DHT22;34289;48.572;13.378;2023-09-18T00:57:04;13.60;99.90
48488;DHT22;34289;48.572;13.378;2023-09-18T00:59:30;13.40;99.90
48488;DHT22;34289;48.572;13.378;2023-09-18T01:01:56;13.60;99.90
48488;DHT22;34289;48.572;13.378;2023-09-18T01:04:25;14.20;99.90
48488;DHT22;34289;48.572;13.378;2023-09-18T01:06:52;14.10;99.90
48488;DHT22;34289;48.572;13.378;2023-09-18T01:09:18;13.90;99.90
48488;DHT22;34289;48.572;13.378;2023-09-18T01:11:54;14.20;99.90
48488;DHT22;34289;48.572;13.378;2023-09-18T01:14:33;13.70;99.90
48488;DHT22;34289;48.572;13.378;2023-09-18T01:17:03;13.50;99.90
48488;DHT22;34289;48.572;13.378;2023-09-18T01:19:41;13.60;99.90
48488;DHT22;34289;48.572;13.378;2023-09-18T01:22:08;13.70;99.90
48488;DHT22;34289;48.572;13.378;2023-09-18T01:24:36;14.10;99.90
48488;DHT22;34289;48.572;13.378;2023-09-18T01:27:02;14.00;99.90
48488;DHT22;34289;48.572;13.378;2023-09-18T01:29:31;13.50;99.90
48488;DHT22;34289;48.572;13.378;2023-09-18T01:31:57;13.60;99.90
48488;DHT22;34289;48.572;13.378;2023-09-18T01:34:26;13.60;99.90
48488;DHT22;34289;48.572;13.378;2023-09-18T01:36:53;13.90;99.90
48488;DHT22;34289;48.572;13.378;2023-09-18T01:39:21;13.60;99.90
48488;DHT22;34289;48.572;13.378;2023-09-18T01:41:47;14.10;99.90
48488;DHT22;34289;48.572;13.378;2023-09-18T01:44:13;13.70;99.90
48488;DHT22;34289;48.572;13.378;2023-09-18T01:46:38;13.50;99.90
48488;DHT22;34289;48.572;13.378;2023-09-18T01:49:05;13.60;99.90
48488;DHT22;34289;48.572;13.378;2023-09-18T01:51:30;13.80;99.90
48488;DHT22;34289;48.572;13.378;2023-09-18T01:53:56;13.50;99.90
48488;DHT22;34289;48.572;13.378;2023-09-18T01:56:23;13.80;99.90
48488;DHT22;34289;48.572;13.378;2023-09-18T01:58:49;13.70;99.90
48488;DHT22;34289;48.572;13.378;2023-09-18T02:01:14;13.60;99.90
48488;DHT22;34289;48.572;13.378;2023-09-18T02:03:40;13.60;99.90
48488;DHT22;34289;48.572;13.378;2023-09-18T02:06:06;13.70;99.90
48488;DHT22;34289;48.572;13.378;2023-09-18T02:08:32;14.10;99.90
48488;DHT22;34289;48.572;13.378;2023-09-18T02:10:57;13.90;99.90
48488;DHT22;34289;48.572;13.378;2023-09-18T02:13:23;13.90;99.90
48488;DHT22;34289;48.572;13.378;2023-09-18T02:15:49;13.80;99.90
48488;DHT22;34289;48.572;13.378;2023-09-18T02:18:14;13.30;99.90
48488;DHT22;34289;48.572;13.378;2023-09-18T02:20:41;13.40;99.90
48488;DHT22;34289;48.572;13.378;2023-09-18T02:23:07;13.50;99.90
48488;DHT22;34289;48.572;13.378;2023-09-18T02:25:33;13.50;99.90
48488;DHT22;34289;48.572;13.378;2023-09-18T02:27:58;14.10;99.90
48488;DHT22;34289;48.572;13.378;2023-09-18T02:30:24;14.00;99.90
48488;DHT22;34289;48.572;13.378;2023-09-18T02:32:50;13.50;99.90
48488;DHT22;34289;48.572;13.378;2023-09-18T02:35:16;13.40;99.90
48488;DHT22;34289;48.572;13.378;2023-09-18T02:37:41;13.60;99.90
48488;DHT22;34289;48.572;13.378;2023-09-18T02:40:07;13.60;99.90
48488;DHT22;34289;48.572;13.378;2023-09-18T02:42:33;13.60;99.90
48488;DHT22;34289;48.572;13.378;2023-09-18T02:44:59;14.00;99.90
48488;DHT22;34289;48.572;13.378;2023-09-18T02:47:24;13.60;99.90
48488;DHT22;34289;48.572;13.378;2023-09-18T02:49:50;13.00;99.90
48488;DHT22;34289;48.572;13.378;2023-09-18T02:52:16;13.50;99.90
48488;DHT22;34289;48.572;13.378;2023-09-18T02:54:41;13.40;99.90
48488;DHT22;34289;48.572;13.378;2023-09-18T02:57:07;13.60;99.90
48488;DHT22;34289;48.572;13.378;2023-09-18T02:59:32;13.40;99.90
48488;DHT22;34289;48.572;13.378;2023-09-18T03:01:59;13.70;99.90
48488;DHT22;34289;48.572;13.378;2023-09-18T03:04:25;13.70;99.90
48488;DHT22;34289;48.572;13.378;2023-09-18T03:06:50;13.60;99.90
48488;DHT22;34289;48.572;13.378;2023-09-18T03:09:16;13.20;99.90
48488;DHT22;34289;48.572;13.378;2023-09-18T03:11:42;13.20;99.90
48488;DHT22;34289;48.572;13.378;2023-09-18T03:14:09;13.40;99.90
48488;DHT22;34289;48.572;13.378;2023-09-18T03:16:34;13.50;99.90
48488;DHT22;34289;48.572;13.378;2023-09-18T03:19:00;13.60;99.90
48488;DHT22;34289;48.572;13.378;2023-09-18T03:21:26;13.30;99.90
48488;DHT22;34289;48.572;13.378;2023-09-18T03:23:51;13.40;99.90
48488;DHT22;34289;48.572;13.378;2023-09-18T03:26:17;13.40;99.90
48488;DHT22;34289;48.572;13.378;2023-09-18T03:28:42;13.40;99.90
48488;DHT22;34289;48.572;13.378;2023-09-18T03:31:08;13.40;99.90
48488;DHT22;34289;48.572;13.378;2023-09-18T03:33:33;13.70;99.90
48488;DHT22;34289;48.572;13.378;2023-09-18T03:35:59;13.50;99.90
48488;DHT22;34289;48.572;13.378;2023-09-18T03:38:25;13.90;99.90
48488;DHT22;34289;48.572;13.378;2023-09-18T03:40:50;13.40;99.90
48488;DHT22;34289;48.572;13.378;2023-09-18T03:43:17;13.30;99.90
48488;DHT22;34289;48.572;13.378;2023-09-18T03:45:43;13.10;99.90
48488;DHT22;34289;48.572;13.378;2023-09-18T03:48:08;13.30;99.90
48488;DHT22;34289;48.572;13.378;2023-09-18T03:50:34;13.40;99.90
48488;DHT22;34289;48.572;13.378;2023-09-18T03:53:00;13.40;99.90
48488;DHT22;34289;48.572;13.378;2023-09-18T03:55:26;13.40;99.90
48488;DHT22;34289;48.572;13.378;2023-09-18T03:57:52;12.90;99.90
48488;DHT22;34289;48.572;13.378;2023-09-18T04:00:18;12.90;99.90
48488;DHT22;34289;48.572;13.378;2023-09-18T04:02:43;12.60;99.90
48488;DHT22;34289;48.572;13.378;2023-09-18T04:05:09;13.20;99.90
48488;DHT22;34289;48.572;13.378;2023-09-18T04:07:35;12.80;99.90
48488;DHT22;34289;48.572;13.378;2023-09-18T04:10:00;12.90;99.90
48488;DHT22;34289;48.572;13.378;2023-09-18T04:12:26;13.70;99.90
48488;DHT22;34289;48.572;13.378;2023-09-18T04:14:52;12.90;99.90
48488;DHT22;34289;48.572;13.378;2023-09-18T04:17:17;13.00;99.90
48488;DHT22;34289;48.572;13.378;2023-09-18T04:19:44;13.00;99.90
48488;DHT22;34289;48.572;13.378;2023-09-18T04:22:09;13.30;99.90
48488;DHT22;34289;48.572;13.378;2023-09-18T04:24:35;13.40;99.90
48488;DHT22;34289;48.572;13.378;2023-09-18T04:27:01;13.40;99.90
48488;DHT22;34289;48.572;13.378;2023-09-18T04:29:27;12.80;99.90
48488;DHT22;34289;48.572;13.378;2023-09-18T04:31:52;12.70;99.90
48488;DHT22;34289;48.572;13.378;2023-09-18T04:34:20;12.70;99.90
48488;DHT22;34289;48.572;13.378;2023-09-18T04:36:45;13.20;99.90
48488;DHT22;34289;48.572;13.378;2023-09-18T04:39:11;12.90;99.90
48488;DHT22;34289;48.572;13.378;2023-09-18T04:41:37;12.90;99.90
48488;DHT22;34289;48.572;13.378;2023-09-18T04:44:03;13.30;99.90
48488;DHT22;34289;48.572;13.378;2023-09-18T04:46:30;12.90;99.90
48488;DHT22;34289;48.572;13.378;2023-09-18T04:48:56;12.80;99.90
48488;DHT22;34289;48.572;13.378;2023-09-18T04:51:21;13.20;99.90
48488;DHT22;34289;48.572;13.378;2023-09-18T04:53:47;13.30;99.90
48488;DHT22;34289;48.572;13.378;2023-09-18T04:56:13;12.80;99.90
48488;DHT22;34289;48.572;13.378;2023-09-18T04:58:38;12.60;99.90
48488;DHT22;34289;48.572;13.378;2023-09-18T05:01:04;13.10;99.90
48488;DHT22;34289;48.572;13.378;2023-09-18T05:03:32;13.10;99.90
48488;DHT22;34289;48.572;13.378;2023-09-18T05:05:58;12.80;99.90
48488;DHT22;34289;48.572;13.378;2023-09-18T05:08:23;13.00;99.90
48488;DHT22;34289;48.572;13.378;2023-09-18T05:10:49;12.70;99.90
48488;DHT22;34289;48.572;13.378;2023-09-18T05:13:16;12.80;99.90
48488;DHT22;34289;48.572;13.378;2023-09-18T05:15:41;12.90;99.90
48488;DHT22;34289;48.572;13.378;2023-09-18T05:18:07;12.90;99.90
48488;DHT22;34289;48.572;13.378;2023-09-18T05:20:34;12.90;99.90
48488;DHT22;34289;48.572;13.378;2023-09-18T05:23:00;12.80;99.90
48488;DHT22;34289;48.572;13.378;2023-09-18T05:25:28;12.90;99.90
48488;DHT22;34289;48.572;13.378;2023-09-18T05:27:57;13.10;99.90
48488;DHT22;34289;48.572;13.378;2023-09-18T05:30:27;13.30;99.90
48488;DHT22;34289;48.572;13.378;2023-09-18T05:33:01;13.70;99.90
48488;DHT22;34289;48.572;13.378;2023-09-18T05:35:40;13.70;99.90
48488;DHT22;34289;48.572;13.378;2023-09-18T05:38:07;13.90;99.90
48488;DHT22;34289;48.572;13.378;2023-09-18T05:40:33;13.90;99.90
48488;DHT22;34289;48.572;13.378;2023-09-18T05:43:00;13.90;99.90
48488;DHT22;34289;48.572;13.378;2023-09-18T05:50:33;13.90;99.90
48488;DHT22;34289;48.572;13.378;2023-09-18T05:53:00;14.30;99.90
48488;DHT22;34289;48.572;13.378;2023-09-18T05:55:29;14.30;99.90
48488;DHT22;34289;48.572;13.378;2023-09-18T05:57:55;14.20;99.90
48488;DHT22;34289;48.572;13.378;2023-09-18T06:00:21;13.80;99.90
48488;DHT22;34289;48.572;13.378;2023-09-18T06:14:59;15.20;99.90
48488;DHT22;34289;48.572;13.378;2023-09-18T06:58:54;19.90;99.90
48488;DHT22;34289;48.572;13.378;2023-09-18T07:06:17;19.60;99.90
48488;DHT22;34289;48.572;13.378;2023-09-18T07:23:22;21.60;99.90
48488;DHT22;34289;48.572;13.378;2023-09-18T07:30:43;21.70;99.90
48488;DHT22;34289;48.572;13.378;2023-09-18T07:33:10;21.70;99.90
48488;DHT22;34289;48.572;13.378;2023-09-18T07:35:36;21.70;99.90
48488;DHT22;34289;48.572;13.378;2023-09-18T07:38:02;22.10;99.90
48488;DHT22;34289;48.572;13.378;2023-09-18T07:40:27;22.20;99.90
48488;DHT22;34289;48.572;13.378;2023-09-18T07:42:53;22.10;99.90
48488;DHT22;34289;48.572;13.378;2023-09-18T07:45:18;21.80;99.90
48488;DHT22;34289;48.572;13.378;2023-09-18T08:07:15;21.70;99.90
48488;DHT22;34289;48.572;13.378;2023-09-18T08:09:41;21.70;99.90
48488;DHT22;34289;48.572;13.378;2023-09-18T08:12:08;22.10;99.90
48488;DHT22;34289;48.572;13.378;2023-09-18T08:14:35;22.90;99.90
48488;DHT22;34289;48.572;13.378;2023-09-18T08:17:02;23.50;99.90
48488;DHT22;34289;48.572;13.378;2023-09-18T08:19:30;24.20;99.90
48488;DHT22;34289;48.572;13.378;2023-09-18T08:21:57;24.20;99.90
48488;DHT22;34289;48.572;13.378;2023-09-18T08:24:23;24.60;99.90
48488;DHT22;34289;48.572;13.378;2023-09-18T08:26:49;24.80;99.90
48488;DHT22;34289;48.572;13.378;2023-09-18T08:29:15;24.60;99.90
48488;DHT22;34289;48.572;13.378;2023-09-18T08:31:41;24.30;99.90
48488;DHT22;34289;48.572;13.378;2023-09-18T08:34:07;24.10;99.90
48488;DHT22;34289;48.572;13.378;2023-09-18T08:36:33;24.50;99.90
48488;DHT22;34289;48.572;13.378;2023-09-18T08:38:59;24.20;99.90
48488;DHT22;34289;48.572;13.378;2023-09-18T08:41:24;24.60;99.90
48488;DHT22;34289;48.572;13.378;2023-09-18T08:43:59;24.70;99.90
48488;DHT22;34289;48.572;13.378;2023-09-18T08:46:25;24.60;99.90
48488;DHT22;34289;48.572;13.378;2023-09-18T08:48:51;24.60;99.90
48488;DHT22;34289;48.572;13.378;2023-09-18T08:51:18;24.60;99.90
48488;DHT22;34289;48.572;13.378;2023-09-18T08:53:44;25.40;99.90
48488;DHT22;34289;48.572;13.378;2023-09-18T08:56:12;24.50;99.90
48488;DHT22;34289;48.572;13.378;2023-09-18T08:58:39;24.50;99.90
48488;DHT22;34289;48.572;13.378;2023-09-18T09:01:09;24.70;99.90
48488;DHT22;34289;48.572;13.378;2023-09-18T09:03:42;24.70;99.90
48488;DHT22;34289;48.572;13.378;2023-09-18T09:06:09;25.30;99.90
48488;DHT22;34289;48.572;13.378;2023-09-18T09:08:36;25.90;99.90
48488;DHT22;34289;48.572;13.378;2023-09-18T09:11:02;26.30;99.90
48488;DHT22;34289;48.572;13.378;2023-09-18T09:13:28;26.10;99.90
48488;DHT22;34289;48.572;13.378;2023-09-18T09:15:56;26.50;99.90
48488;DHT22;34289;48.572;13.378;2023-09-18T09:18:26;26.70;99.90
48488;DHT22;34289;48.572;13.378;2023-09-18T09:20:57;26.80;99.90
48488;DHT22;34289;48.572;13.378;2023-09-18T09:23:25;27.00;99.90
48488;DHT22;34289;48.572;13.378;2023-09-18T09:25:51;26.60;99.90
48488;DHT22;34289;48.572;13.378;2023-09-18T09:28:31;26.90;99.90
48488;DHT22;34289;48.572;13.378;2023-09-18T09:31:02;27.10;99.90
48488;DHT22;34289;48.572;13.378;2023-09-18T09:33:29;27.50;99.90
48488;DHT22;34289;48.572;13.378;2023-09-18T09:35:58;27.60;99.90
48488;DHT22;34289;48.572;13.378;2023-09-18T09:38:31;27.70;99.90
48488;DHT22;34289;48.572;13.378;2023-09-18T09:40:58;27.70;99.90
48488;DHT22;34289;48.572;13.378;2023-09-18T09:43:25;27.60;99.90
48488;DHT22;34289;48.572;13.378;2023-09-18T09:45:57;27.40;99.90
48488;DHT22;34289;48.572;13.378;2023-09-18T09:48:23;27.20;99.90
48488;DHT22;34289;48.572;13.378;2023-09-18T09:50:50;27.10;99.90
48488;DHT22;34289;48.572;13.378;2023-09-18T09:53:17;27.20;99.90
48488;DHT22;34289;48.572;13.378;2023-09-18T09:55:43;27.40;99.90
48488;DHT22;34289;48.572;13.378;2023-09-18T09:58:10;27.80;99.90
48488;DHT22;34289;48.572;13.378;2023-09-18T10:00:43;28.00;99.90
48488;DHT22;34289;48.572;13.378;2023-09-18T10:03:13;28.00;99.90
48488;DHT22;34289;48.572;13.378;2023-09-18T10:05:43;28.30;99.90
48488;DHT22;34289;48.572;13.378;2023-09-18T10:08:16;28.10;99.90
48488;DHT22;34289;48.572;13.378;2023-09-18T10:10:53;28.30;99.90
48488;DHT22;34289;48.572;13.378;2023-09-18T10:15:50;28.60;99.90
48488;DHT22;34289;48.572;13.378;2023-09-18T10:18:42;28.50;99.90
48488;DHT22;34289;48.572;13.378;2023-09-18T10:21:26;28.30;99.90
48488;DHT22;34289;48.572;13.378;2023-09-18T10:27:04;27.40;99.90
48488;DHT22;34289;48.572;13.378;2023-09-18T10:29:33;28.00;99.90
48488;DHT22;34289;48.572;13.378;2023-09-18T10:32:05;27.80;99.90
48488;DHT22;34289;48.572;13.378;2023-09-18T10:34:34;27.90;99.90
48488;DHT22;34289;48.572;13.378;2023-09-18T10:37:01;28.10;99.90
48488;DHT22;34289;48.572;13.378;2023-09-18T10:39:31;28.30;99.90
48488;DHT22;34289;48.572;13.378;2023-09-18T10:42:01;28.40;99.90
48488;DHT22;34289;48.572;13.378;2023-09-18T10:44:28;28.30;99.90
48488;DHT22;34289;48.572;13.378;2023-09-18T10:46:55;28.20;99.90
48488;DHT22;34289;48.572;13.378;2023-09-18T10:49:21;27.80;99.90
48488;DHT22;34289;48.572;13.378;2023-09-18T10:51:47;27.70;99.90
48488;DHT22;34289;48.572;13.378;2023-09-18T10:54:20;27.70;99.90
48488;DHT22;34289;48.572;13.378;2023-09-18T10:56:45;27.60;99.90
48488;DHT22;34289;48.572;13.378;2023-09-18T10:59:11;27.20;99.90
48488;DHT22;34289;48.572;13.378;2023-09-18T11:01:37;27.00;99.90
48488;DHT22;34289;48.572;13.378;2023-09-18T11:04:07;26.80;99.90
48488;DHT22;34289;48.572;13.378;2023-09-18T11:09:26;26.30;99.90
48488;DHT22;34289;48.572;13.378;2023-09-18T11:14:48;26.70;99.90
48488;DHT22;34289;48.572;13.378;2023-09-18T11:17:37;26.50;99.90
48488;DHT22;34289;48.572;13.378;2023-09-18T11:20:24;26.50;99.90
48488;DHT22;34289;48.572;13.378;2023-09-18T11:23:15;26.40;99.90
48488;DHT22;34289;48.572;13.378;2023-09-18T11:25:41;25.90;99.90
48488;DHT22;34289;48.572;13.378;2023-09-18T11:28:24;25.90;99.90
48488;DHT22;34289;48.572;13.378;2023-09-18T11:30:51;25.70;99.90
48488;DHT22;34289;48.572;13.378;2023-09-18T11:33:35;25.70;99.90
48488;DHT22;34289;48.572;13.378;2023-09-18T11:38:58;25.80;99.90
48488;DHT22;34289;48.572;13.378;2023-09-18T11:41:30;26.00;99.90
48488;DHT22;34289;48.572;13.378;2023-09-18T11:46:48;26.70;99.90
48488;DHT22;34289;48.572;13.378;2023-09-18T11:49:18;26.80;99.90
48488;DHT22;34289;48.572;13.378;2023-09-18T11:51:45;26.90;99.90
48488;DHT22;34289;48.572;13.378;2023-09-18T11:54:12;26.80;99.90
48488;DHT22;34289;48.572;13.378;2023-09-18T11:56:39;26.70;99.90
48488;DHT22;34289;48.572;13.378;2023-09-18T11:59:05;26.70;99.90
48488;DHT22;34289;48.572;13.378;2023-09-18T12:01:32;27.20;99.90
48488;DHT22;34289;48.572;13.378;2023-09-18T12:04:02;27.70;99.90
48488;DHT22;34289;48.572;13.378;2023-09-18T12:06:33;27.70;99.90
48488;DHT22;34289;48.572;13.378;2023-09-18T12:08:59;27.50;99.90
48488;DHT22;34289;48.572;13.378;2023-09-18T12:11:25;27.00;99.90
48488;DHT22;34289;48.572;13.378;2023-09-18T12:13:51;26.90;99.90
48488;DHT22;34289;48.572;13.378;2023-09-18T12:16:17;26.80;99.90
48488;DHT22;34289;48.572;13.378;2023-09-18T12:18:50;26.90;99.90
48488;DHT22;34289;48.572;13.378;2023-09-18T12:21:16;26.70;99.90
48488;DHT22;34289;48.572;13.378;2023-09-18T12:23:44;26.50;99.90
48488;DHT22;34289;48.572;13.378;2023-09-18T12:26:15;26.60;99.90
48488;DHT22;34289;48.572;13.378;2023-09-18T12:28:42;26.70;99.90
48488;DHT22;34289;48.572;13.378;2023-09-18T12:31:14;26.70;99.90
48488;DHT22;34289;48.572;13.378;2023-09-18T12:33:42;26.90;99.90
48488;DHT22;34289;48.572;13.378;2023-09-18T12:36:09;27.00;99.90
48488;DHT22;34289;48.572;13.378;2023-09-18T12:38:36;27.00;99.90
48488;DHT22;34289;48.572;13.378;2023-09-18T12:41:03;26.80;99.90
48488;DHT22;34289;48.572;13.378;2023-09-18T12:43:41;27.00;99.90
48488;DHT22;34289;48.572;13.378;2023-09-18T12:46:09;27.00;99.90
48488;DHT22;34289;48.572;13.378;2023-09-18T12:48:39;26.90;99.90
48488;DHT22;34289;48.572;13.378;2023-09-18T12:51:11;26.90;99.90
48488;DHT22;34289;48.572;13.378;2023-09-18T12:53:37;27.00;99.90
48488;DHT22;34289;48.572;13.378;2023-09-18T12:56:13;27.10;99.90
48488;DHT22;34289;48.572;13.378;2023-09-18T12:58:40;27.30;99.90
48488;DHT22;34289;48.572;13.378;2023-09-18T13:01:07;27.40;99.90
48488;DHT22;34289;48.572;13.378;2023-09-18T13:03:43;27.40;99.90
48488;DHT22;34289;48.572;13.378;2023-09-18T13:06:16;27.40;99.90
48488;DHT22;34289;48.572;13.378;2023-09-18T13:08:43;27.30;99.90
48488;DHT22;34289;48.572;13.378;2023-09-18T13:11:09;27.20;99.90
48488;DHT22;34289;48.572;13.378;2023-09-18T13:13:36;27.00;99.90
48488;DHT22;34289;48.572;13.378;2023-09-18T13:16:05;26.90;99.90
48488;DHT22;34289;48.572;13.378;2023-09-18T13:18:31;26.60;99.90
48488;DHT22;34289;48.572;13.378;2023-09-18T13:20:57;26.60;99.90
48488;DHT22;34289;48.572;13.378;2023-09-18T13:23:32;26.50;99.90
48488;DHT22;34289;48.572;13.378;2023-09-18T13:26:03;26.30;99.90
48488;DHT22;34289;48.572;13.378;2023-09-18T13:28:29;26.20;99.90
48488;DHT22;34289;48.572;13.378;2023-09-18T13:30:56;26.00;99.90
48488;DHT22;34289;48.572;13.378;2023-09-18T13:33:22;26.20;99.90
48488;DHT22;34289;48.572;13.378;2023-09-18T13:35:49;26.10;99.90
48488;DHT22;34289;48.572;13.378;2023-09-18T13:38:15;26.10;99.90
48488;DHT22;34289;48.572;13.378;2023-09-18T13:40:42;26.00;99.90
48488;DHT22;34289;48.572;13.378;2023-09-18T13:43:09;25.80;99.90
48488;DHT22;34289;48.572;13.378;2023-09-18T13:45:35;25.90;99.90
48488;DHT22;34289;48.572;13.378;2023-09-18T13:48:05;25.90;99.90
48488;DHT22;34289;48.572;13.378;2023-09-18T13:50:32;25.70;99.90
48488;DHT22;34289;48.572;13.378;2023-09-18T13:52:57;25.70;99.90
48488;DHT22;34289;48.572;13.378;2023-09-18T13:55:25;25.50;99.90
48488;DHT22;34289;48.572;13.378;2023-09-18T13:57:50;25.60;99.90
48488;DHT22;34289;48.572;13.378;2023-09-18T14:00:16;25.50;99.90
48488;DHT22;34289;48.572;13.378;2023-09-18T14:02:42;25.40;99.90
48488;DHT22;34289;48.572;13.378;2023-09-18T14:05:09;25.40;99.90
48488;DHT22;34289;48.572;13.378;2023-09-18T14:07:35;25.60;99.90
48488;DHT22;34289;48.572;13.378;2023-09-18T14:10:01;25.30;99.90
48488;DHT22;34289;48.572;13.378;2023-09-18T14:12:30;25.30;99.90
48488;DHT22;34289;48.572;13.378;2023-09-18T14:14:56;25.20;99.90
48488;DHT22;34289;48.572;13.378;2023-09-18T14:17:22;25.20;99.90
48488;DHT22;34289;48.572;13.378;2023-09-18T14:19:47;25.10;99.90
48488;DHT22;34289;48.572;13.378;2023-09-18T14:22:13;25.10;99.90
48488;DHT22;34289;48.572;13.378;2023-09-18T14:24:39;25.00;99.90
48488;DHT22;34289;48.572;13.378;2023-09-18T14:27:05;24.90;99.90
48488;DHT22;34289;48.572;13.378;2023-09-18T14:29:32;24.90;99.90
48488;DHT22;34289;48.572;13.378;2023-09-18T14:31:57;24.80;99.90
48488;DHT22;34289;48.572;13.378;2023-09-18T14:34:23;24.80;99.90
48488;DHT22;34289;48.572;13.378;2023-09-18T14:36:48;24.80;99.90
48488;DHT22;34289;48.572;13.378;2023-09-18T14:39:14;25.10;99.90
48488;DHT22;34289;48.572;13.378;2023-09-18T14:41:40;24.80;99.90
48488;DHT22;34289;48.572;13.378;2023-09-18T14:44:07;24.80;99.90
48488;DHT22;34289;48.572;13.378;2023-09-18T14:46:34;24.70;99.90
48488;DHT22;34289;48.572;13.378;2023-09-18T14:49:00;24.60;99.90
48488;DHT22;34289;48.572;13.378;2023-09-18T14:51:27;24.60;99.90
48488;DHT22;34289;48.572;13.378;2023-09-18T14:53:57;23.00;99.90
48488;DHT22;34289;48.572;13.378;2023-09-18T14:56:23;24.40;99.90
48488;DHT22;34289;48.572;13.378;2023-09-18T14:58:48;24.40;99.90
48488;DHT22;34289;48.572;13.378;2023-09-18T15:01:15;24.30;99.90
48488;DHT22;34289;48.572;13.378;2023-09-18T15:03:40;24.20;99.90
48488;DHT22;34289;48.572;13.378;2023-09-18T15:06:07;24.20;99.90
48488;DHT22;34289;48.572;13.378;2023-09-18T15:08:33;24.20;99.90
48488;DHT22;34289;48.572;13.378;2023-09-18T15:10:59;24.10;99.90
48488;DHT22;34289;48.572;13.378;2023-09-18T15:13:25;24.00;99.90
48488;DHT22;34289;48.572;13.378;2023-09-18T15:15:51;23.80;99.90
48488;DHT22;34289;48.572;13.378;2023-09-18T15:18:16;23.60;99.90
48488;DHT22;34289;48.572;13.378;2023-09-18T15:20:42;23.40;99.90
48488;DHT22;34289;48.572;13.378;2023-09-18T15:23:08;23.40;99.90
48488;DHT22;34289;48.572;13.378;2023-09-18T15:25:35;23.40;99.90
48488;DHT22;34289;48.572;13.378;2023-09-18T15:28:06;23.40;99.90
48488;DHT22;34289;48.572;13.378;2023-09-18T15:30:32;23.40;99.90
48488;DHT22;34289;48.572;13.378;2023-09-18T15:32:58;23.30;99.90
48488;DHT22;34289;48.572;13.378;2023-09-18T15:35:25;23.40;99.90
48488;DHT22;34289;48.572;13.378;2023-09-18T15:37:51;23.10;99.90
48488;DHT22;34289;48.572;13.378;2023-09-18T15:40:18;23.00;99.90
48488;DHT22;34289;48.572;13.378;2023-09-18T15:42:49;22.90;99.90
48488;DHT22;34289;48.572;13.378;2023-09-18T15:45:15;22.80;99.90
48488;DHT22;34289;48.572;13.378;2023-09-18T15:47:41;22.70;99.90
48488;DHT22;34289;48.572;13.378;2023-09-18T15:50:11;22.80;99.90
48488;DHT22;34289;48.572;13.378;2023-09-18T15:52:37;22.50;99.90
48488;DHT22;34289;48.572;13.378;2023-09-18T15:55:03;22.60;99.90
48488;DHT22;34289;48.572;13.378;2023-09-18T15:57:34;22.50;99.90
48488;DHT22;34289;48.572;13.378;2023-09-18T16:00:01;22.40;99.90
48488;DHT22;34289;48.572;13.378;2023-09-18T16:02:30;22.10;99.90
48488;DHT22;34289;48.572;13.378;2023-09-18T16:04:59;22.10;99.90
48488;DHT22;34289;48.572;13.378;2023-09-18T16:07:28;22.00;99.90
48488;DHT22;34289;48.572;13.378;2023-09-18T16:09:54;21.90;99.90
48488;DHT22;34289;48.572;13.378;2023-09-18T16:12:20;21.80;99.90
48488;DHT22;34289;48.572;13.378;2023-09-18T16:14:47;21.80;99.90
48488;DHT22;34289;48.572;13.378;2023-09-18T16:17:12;21.80;99.90
48488;DHT22;34289;48.572;13.378;2023-09-18T16:19:38;21.70;99.90
48488;DHT22;34289;48.572;13.378;2023-09-18T16:22:04;21.60;99.90
48488;DHT22;34289;48.572;13.378;2023-09-18T16:24:30;21.60;99.90
48488;DHT22;34289;48.572;13.378;2023-09-18T16:26:56;21.60;99.90
48488;DHT22;34289;48.572;13.378;2023-09-18T16:29:25;21.40;99.90
48488;DHT22;34289;48.572;13.378;2023-09-18T16:31:51;21.40;99.90
48488;DHT22;34289;48.572;13.378;2023-09-18T16:34:17;21.30;99.90
48488;DHT22;34289;48.572;13.378;2023-09-18T16:36:42;21.30;99.90
48488;DHT22;34289;48.572;13.378;2023-09-18T16:39:08;21.30;99.90
48488;DHT22;34289;48.572;13.378;2023-09-18T16:41:34;21.20;99.90
48488;DHT22;34289;48.572;13.378;2023-09-18T16:44:00;21.10;99.90
48488;DHT22;34289;48.572;13.378;2023-09-18T16:46:27;21.00;99.90
48488;DHT22;34289;48.572;13.378;2023-09-18T16:48:52;21.00;99.90
48488;DHT22;34289;48.572;13.378;2023-09-18T16:51:18;21.00;99.90
48488;DHT22;34289;48.572;13.378;2023-09-18T16:53:44;21.00;99.90
48488;DHT22;34289;48.572;13.378;2023-09-18T16:56:09;20.90;99.90
48488;DHT22;34289;48.572;13.378;2023-09-18T16:58:35;20.70;99.90
48488;DHT22;34289;48.572;13.378;2023-09-18T17:01:01;20.90;99.90
48488;DHT22;34289;48.572;13.378;2023-09-18T17:03:29;20.70;99.90
48488;DHT22;34289;48.572;13.378;2023-09-18T17:05:55;20.60;99.90
48488;DHT22;34289;48.572;13.378;2023-09-18T17:08:21;20.30;99.90
48488;DHT22;34289;48.572;13.378;2023-09-18T17:10:47;20.00;99.90
48488;DHT22;34289;48.572;13.378;2023-09-18T17:13:13;20.00;99.90
48488;DHT22;34289;48.572;13.378;2023-09-18T17:15:38;20.00;99.90